sensor_id;sensor_type;location;lat;lon;timestamp;pressure;altitude;pressure_sealevel;temperature
20736;BMP180;10528;52.124;5.196;2024-02-04T00:02:18;102226.00;;;16.40
20736;BMP180;10528;52.124;5.196;2024-02-04T00:04:49;102223.00;;;16.40
20736;BMP180;10528;52.124;5.196;2024-02-04T00:07:17;102228.00;;;16.40
20736;BMP180;10528;52.124;5.196;2024-02-04T00:09:44;102231.00;;;16.40
20736;BMP180;10528;52.124;5.196;2024-02-04T00:12:11;102224.00;;;16.40
20736;BMP180;10528;52.124;5.196;2024-02-04T00:14:38;102216.00;;;16.40
20736;BMP180;10528;52.124;5.196;2024-02-04T00:17:07;102218.00;;;16.40
20736;BMP180;10528;52.124;5.196;2024-02-04T00:19:34;102207.00;;;16.40
20736;BMP180;10528;52.124;5.196;2024-02-04T00:22:01;102217.00;;;16.40
20736;BMP180;10528;52.124;5.196;2024-02-04T00:24:28;102223.00;;;16.40
20736;BMP180;10528;52.124;5.196;2024-02-04T00:26:55;102220.00;;;16.40
20736;BMP180;10528;52.124;5.196;2024-02-04T00:29:22;102214.00;;;16.40
20736;BMP180;10528;52.124;5.196;2024-02-04T00:31:49;102216.00;;;16.40
20736;BMP180;10528;52.124;5.196;2024-02-04T00:34:16;102218.00;;;16.40
20736;BMP180;10528;52.124;5.196;2024-02-04T00:36:43;102226.00;;;16.40
20736;BMP180;10528;52.124;5.196;2024-02-04T00:39:10;102218.00;;;16.40
20736;BMP180;10528;52.124;5.196;2024-02-04T00:41:38;102220.00;;;16.40
20736;BMP180;10528;52.124;5.196;2024-02-04T00:44:04;102218.00;;;16.30
20736;BMP180;10528;52.124;5.196;2024-02-04T00:46:31;102211.00;;;16.30
20736;BMP180;10528;52.124;5.196;2024-02-04T00:48:59;102212.00;;;16.30
20736;BMP180;10528;52.124;5.196;2024-02-04T00:51:26;102208.00;;;16.30
20736;BMP180;10528;52.124;5.196;2024-02-04T00:53:53;102211.00;;;16.30
20736;BMP180;10528;52.124;5.196;2024-02-04T00:56:21;102202.00;;;16.30
20736;BMP180;10528;52.124;5.196;2024-02-04T00:58:48;102207.00;;;16.20
20736;BMP180;10528;52.124;5.196;2024-02-04T01:01:15;102194.00;;;16.20
20736;BMP180;10528;52.124;5.196;2024-02-04T01:03:42;102194.00;;;16.20
20736;BMP180;10528;52.124;5.196;2024-02-04T01:06:09;102192.00;;;16.20
20736;BMP180;10528;52.124;5.196;2024-02-04T01:08:36;102197.00;;;16.20
20736;BMP180;10528;52.124;5.196;2024-02-04T01:11:07;102205.00;;;16.20
20736;BMP180;10528;52.124;5.196;2024-02-04T01:13:34;102195.00;;;16.20
20736;BMP180;10528;52.124;5.196;2024-02-04T01:16:01;102191.00;;;16.20
20736;BMP180;10528;52.124;5.196;2024-02-04T01:18:28;102184.00;;;16.20
20736;BMP180;10528;52.124;5.196;2024-02-04T01:20:55;102190.00;;;16.20
20736;BMP180;10528;52.124;5.196;2024-02-04T01:23:22;102179.00;;;16.20
20736;BMP180;10528;52.124;5.196;2024-02-04T01:25:48;102184.00;;;16.20
20736;BMP180;10528;52.124;5.196;2024-02-04T01:28:15;102189.00;;;16.20
20736;BMP180;10528;52.124;5.196;2024-02-04T01:30:42;102202.00;;;16.20
20736;BMP180;10528;52.124;5.196;2024-02-04T01:33:09;102195.00;;;16.20
20736;BMP180;10528;52.124;5.196;2024-02-04T01:35:36;102210.00;;;16.30
20736;BMP180;10528;52.124;5.196;2024-02-04T01:38:03;102206.00;;;16.30
20736;BMP180;10528;52.124;5.196;2024-02-04T01:40:30;102193.00;;;16.30
20736;BMP180;10528;52.124;5.196;2024-02-04T01:42:57;102192.00;;;16.30
20736;BMP180;10528;52.124;5.196;2024-02-04T01:45:24;102191.00;;;16.30
20736;BMP180;10528;52.124;5.196;2024-02-04T01:47:52;102195.00;;;16.30
20736;BMP180;10528;52.124;5.196;2024-02-04T01:50:21;102182.00;;;16.20
20736;BMP180;10528;52.124;5.196;2024-02-04T01:52:50;102208.00;;;16.20
20736;BMP180;10528;52.124;5.196;2024-02-04T01:55:18;102201.00;;;16.20
20736;BMP180;10528;52.124;5.196;2024-02-04T01:57:48;102213.00;;;16.20
20736;BMP180;10528;52.124;5.196;2024-02-04T02:00:16;102207.00;;;16.20
20736;BMP180;10528;52.124;5.196;2024-02-04T02:02:49;102217.00;;;16.20
20736;BMP180;10528;52.124;5.196;2024-02-04T02:05:18;102221.00;;;16.20
20736;BMP180;10528;52.124;5.196;2024-02-04T02:07:45;102218.00;;;16.20
20736;BMP180;10528;52.124;5.196;2024-02-04T02:10:14;102222.00;;;16.20
20736;BMP180;10528;52.124;5.196;2024-02-04T02:12:56;102222.00;;;16.10
20736;BMP180;10528;52.124;5.196;2024-02-04T02:15:37;102198.00;;;16.20
20736;BMP180;10528;52.124;5.196;2024-02-04T02:18:18;102216.00;;;16.20
20736;BMP180;10528;52.124;5.196;2024-02-04T02:23:57;102196.00;;;16.10
20736;BMP180;10528;52.124;5.196;2024-02-04T02:26:33;102194.00;;;16.10
20736;BMP180;10528;52.124;5.196;2024-02-04T02:29:01;102202.00;;;16.20
20736;BMP180;10528;52.124;5.196;2024-02-04T02:31:27;102190.00;;;16.20
20736;BMP180;10528;52.124;5.196;2024-02-04T02:34:12;102201.00;;;16.20
20736;BMP180;10528;52.124;5.196;2024-02-04T02:42:21;102191.00;;;16.20
20736;BMP180;10528;52.124;5.196;2024-02-04T02:44:50;102196.00;;;16.20
20736;BMP180;10528;52.124;5.196;2024-02-04T02:47:20;102199.00;;;16.20
20736;BMP180;10528;52.124;5.196;2024-02-04T02:49:52;102195.00;;;16.20
20736;BMP180;10528;52.124;5.196;2024-02-04T02:52:23;102191.00;;;16.20
20736;BMP180;10528;52.124;5.196;2024-02-04T02:54:50;102195.00;;;16.20
20736;BMP180;10528;52.124;5.196;2024-02-04T02:57:17;102198.00;;;16.10
20736;BMP180;10528;52.124;5.196;2024-02-04T02:59:44;102197.00;;;16.10
20736;BMP180;10528;52.124;5.196;2024-02-04T03:02:11;102190.00;;;16.10
20736;BMP180;10528;52.124;5.196;2024-02-04T03:04:40;102209.00;;;16.10
20736;BMP180;10528;52.124;5.196;2024-02-04T03:07:07;102212.00;;;16.10
20736;BMP180;10528;52.124;5.196;2024-02-04T03:09:34;102191.00;;;16.10
20736;BMP180;10528;52.124;5.196;2024-02-04T03:12:01;102199.00;;;16.10
20736;BMP180;10528;52.124;5.196;2024-02-04T03:14:28;102204.00;;;16.10
20736;BMP180;10528;52.124;5.196;2024-02-04T03:16:55;102194.00;;;16.00
20736;BMP180;10528;52.124;5.196;2024-02-04T03:19:22;102185.00;;;16.00
20736;BMP180;10528;52.124;5.196;2024-02-04T03:21:49;102202.00;;;16.00
20736;BMP180;10528;52.124;5.196;2024-02-04T03:24:16;102191.00;;;16.00
20736;BMP180;10528;52.124;5.196;2024-02-04T03:26:44;102196.00;;;16.00
20736;BMP180;10528;52.124;5.196;2024-02-04T03:29:11;102190.00;;;16.00
20736;BMP180;10528;52.124;5.196;2024-02-04T03:31:38;102179.00;;;15.90
20736;BMP180;10528;52.124;5.196;2024-02-04T03:34:05;102185.00;;;15.90
20736;BMP180;10528;52.124;5.196;2024-02-04T03:36:32;102184.00;;;15.90
20736;BMP180;10528;52.124;5.196;2024-02-04T03:38:59;102179.00;;;15.90
20736;BMP180;10528;52.124;5.196;2024-02-04T03:41:26;102173.00;;;15.90
20736;BMP180;10528;52.124;5.196;2024-02-04T03:43:53;102178.00;;;15.90
20736;BMP180;10528;52.124;5.196;2024-02-04T03:46:21;102176.00;;;15.80
20736;BMP180;10528;52.124;5.196;2024-02-04T03:48:49;102189.00;;;15.80
20736;BMP180;10528;52.124;5.196;2024-02-04T03:51:18;102184.00;;;15.80
20736;BMP180;10528;52.124;5.196;2024-02-04T03:53:48;102205.00;;;15.80
20736;BMP180;10528;52.124;5.196;2024-02-04T03:56:16;102210.00;;;15.80
20736;BMP180;10528;52.124;5.196;2024-02-04T03:58:43;102213.00;;;15.80
20736;BMP180;10528;52.124;5.196;2024-02-04T04:01:11;102211.00;;;15.80
20736;BMP180;10528;52.124;5.196;2024-02-04T04:03:43;102191.00;;;15.80
20736;BMP180;10528;52.124;5.196;2024-02-04T04:06:10;102190.00;;;15.80
20736;BMP180;10528;52.124;5.196;2024-02-04T04:08:38;102188.00;;;15.80
20736;BMP180;10528;52.124;5.196;2024-02-04T04:11:08;102177.00;;;15.80
20736;BMP180;10528;52.124;5.196;2024-02-04T04:13:37;102177.00;;;15.80
20736;BMP180;10528;52.124;5.196;2024-02-04T04:16:05;102177.00;;;15.80
20736;BMP180;10528;52.124;5.196;2024-02-04T04:18:33;102152.00;;;15.80
20736;BMP180;10528;52.124;5.196;2024-02-04T04:21:00;102155.00;;;15.80
20736;BMP180;10528;52.124;5.196;2024-02-04T04:23:27;102165.00;;;15.70
20736;BMP180;10528;52.124;5.196;2024-02-04T04:25:53;102166.00;;;15.70
20736;BMP180;10528;52.124;5.196;2024-02-04T04:28:20;102179.00;;;15.70
20736;BMP180;10528;52.124;5.196;2024-02-04T04:30:47;102160.00;;;15.70
20736;BMP180;10528;52.124;5.196;2024-02-04T04:33:14;102160.00;;;15.70
20736;BMP180;10528;52.124;5.196;2024-02-04T04:35:42;102167.00;;;15.70
20736;BMP180;10528;52.124;5.196;2024-02-04T04:38:09;102150.00;;;15.70
20736;BMP180;10528;52.124;5.196;2024-02-04T04:40:36;102163.00;;;15.70
20736;BMP180;10528;52.124;5.196;2024-02-04T04:43:03;102157.00;;;15.70
20736;BMP180;10528;52.124;5.196;2024-02-04T04:45:30;102148.00;;;15.70
20736;BMP180;10528;52.124;5.196;2024-02-04T04:47:57;102142.00;;;15.70
20736;BMP180;10528;52.124;5.196;2024-02-04T04:50:24;102131.00;;;15.70
20736;BMP180;10528;52.124;5.196;2024-02-04T04:52:51;102131.00;;;15.70
20736;BMP180;10528;52.124;5.196;2024-02-04T04:55:19;102133.00;;;15.70
20736;BMP180;10528;52.124;5.196;2024-02-04T04:57:46;102125.00;;;15.70
20736;BMP180;10528;52.124;5.196;2024-02-04T05:00:14;102131.00;;;15.70
20736;BMP180;10528;52.124;5.196;2024-02-04T05:02:42;102120.00;;;15.70
20736;BMP180;10528;52.124;5.196;2024-02-04T05:05:11;102129.00;;;15.70
20736;BMP180;10528;52.124;5.196;2024-02-04T05:07:39;102127.00;;;15.70
20736;BMP180;10528;52.124;5.196;2024-02-04T05:10:07;102128.00;;;15.70
20736;BMP180;10528;52.124;5.196;2024-02-04T05:12:35;102122.00;;;15.70
20736;BMP180;10528;52.124;5.196;2024-02-04T05:15:05;102130.00;;;15.70
20736;BMP180;10528;52.124;5.196;2024-02-04T05:17:32;102110.00;;;15.80
20736;BMP180;10528;52.124;5.196;2024-02-04T05:20:00;102117.00;;;15.80
20736;BMP180;10528;52.124;5.196;2024-02-04T05:22:30;102136.00;;;15.80
20736;BMP180;10528;52.124;5.196;2024-02-04T05:24:57;102137.00;;;15.80
20736;BMP180;10528;52.124;5.196;2024-02-04T05:27:24;102143.00;;;15.80
20736;BMP180;10528;52.124;5.196;2024-02-04T05:29:51;102133.00;;;15.80
20736;BMP180;10528;52.124;5.196;2024-02-04T05:32:18;102110.00;;;15.70
20736;BMP180;10528;52.124;5.196;2024-02-04T05:34:45;102122.00;;;15.70
20736;BMP180;10528;52.124;5.196;2024-02-04T05:37:12;102111.00;;;15.70
20736;BMP180;10528;52.124;5.196;2024-02-04T05:39:39;102110.00;;;15.70
20736;BMP180;10528;52.124;5.196;2024-02-04T05:42:06;102100.00;;;15.70
20736;BMP180;10528;52.124;5.196;2024-02-04T05:44:33;102096.00;;;15.70
20736;BMP180;10528;52.124;5.196;2024-02-04T05:47:00;102100.00;;;15.70
20736;BMP180;10528;52.124;5.196;2024-02-04T05:49:27;102106.00;;;15.70
20736;BMP180;10528;52.124;5.196;2024-02-04T05:51:54;102113.00;;;15.70
20736;BMP180;10528;52.124;5.196;2024-02-04T05:54:21;102117.00;;;15.70
20736;BMP180;10528;52.124;5.196;2024-02-04T05:56:48;102112.00;;;15.70
20736;BMP180;10528;52.124;5.196;2024-02-04T05:59:15;102113.00;;;15.70
20736;BMP180;10528;52.124;5.196;2024-02-04T06:01:43;102090.00;;;15.70
20736;BMP180;10528;52.124;5.196;2024-02-04T06:04:11;102091.00;;;15.60
20736;BMP180;10528;52.124;5.196;2024-02-04T06:06:38;102084.00;;;15.60
20736;BMP180;10528;52.124;5.196;2024-02-04T06:09:05;102079.00;;;15.70
20736;BMP180;10528;52.124;5.196;2024-02-04T06:11:33;102086.00;;;15.70
20736;BMP180;10528;52.124;5.196;2024-02-04T06:14:00;102085.00;;;15.70
20736;BMP180;10528;52.124;5.196;2024-02-04T06:16:27;102090.00;;;15.70
20736;BMP180;10528;52.124;5.196;2024-02-04T06:18:54;102068.00;;;15.70
20736;BMP180;10528;52.124;5.196;2024-02-04T06:21:24;102073.00;;;15.70
20736;BMP180;10528;52.124;5.196;2024-02-04T06:23:51;102081.00;;;15.70
20736;BMP180;10528;52.124;5.196;2024-02-04T06:26:18;102067.00;;;15.70
20736;BMP180;10528;52.124;5.196;2024-02-04T06:28:45;102061.00;;;15.70
20736;BMP180;10528;52.124;5.196;2024-02-04T06:31:13;102058.00;;;15.70
20736;BMP180;10528;52.124;5.196;2024-02-04T06:33:41;102053.00;;;15.70
20736;BMP180;10528;52.124;5.196;2024-02-04T06:36:11;102046.00;;;15.80
20736;BMP180;10528;52.124;5.196;2024-02-04T06:38:38;102068.00;;;15.80
20736;BMP180;10528;52.124;5.196;2024-02-04T06:41:05;102073.00;;;15.80
20736;BMP180;10528;52.124;5.196;2024-02-04T06:43:32;102052.00;;;15.80
20736;BMP180;10528;52.124;5.196;2024-02-04T06:46:03;102064.00;;;15.80
20736;BMP180;10528;52.124;5.196;2024-02-04T06:48:30;102044.00;;;15.80
20736;BMP180;10528;52.124;5.196;2024-02-04T06:50:57;102054.00;;;15.80
20736;BMP180;10528;52.124;5.196;2024-02-04T06:53:24;102052.00;;;15.80
20736;BMP180;10528;52.124;5.196;2024-02-04T06:55:51;102064.00;;;15.80
20736;BMP180;10528;52.124;5.196;2024-02-04T06:58:18;102046.00;;;15.80
20736;BMP180;10528;52.124;5.196;2024-02-04T07:00:46;102051.00;;;15.80
20736;BMP180;10528;52.124;5.196;2024-02-04T07:03:13;102062.00;;;15.80
20736;BMP180;10528;52.124;5.196;2024-02-04T07:05:41;102055.00;;;15.80
20736;BMP180;10528;52.124;5.196;2024-02-04T07:08:09;102061.00;;;15.80
20736;BMP180;10528;52.124;5.196;2024-02-04T07:10:36;102041.00;;;15.80
20736;BMP180;10528;52.124;5.196;2024-02-04T07:13:03;102057.00;;;15.80
20736;BMP180;10528;52.124;5.196;2024-02-04T07:15:30;102060.00;;;15.90
20736;BMP180;10528;52.124;5.196;2024-02-04T07:17:57;102049.00;;;15.90
20736;BMP180;10528;52.124;5.196;2024-02-04T07:20:24;102052.00;;;15.90
20736;BMP180;10528;52.124;5.196;2024-02-04T07:22:51;102045.00;;;15.90
20736;BMP180;10528;52.124;5.196;2024-02-04T07:25:18;102045.00;;;15.90
20736;BMP180;10528;52.124;5.196;2024-02-04T07:27:45;102044.00;;;15.90
20736;BMP180;10528;52.124;5.196;2024-02-04T07:30:12;102046.00;;;15.90
20736;BMP180;10528;52.124;5.196;2024-02-04T07:32:39;102044.00;;;15.90
20736;BMP180;10528;52.124;5.196;2024-02-04T07:35:06;102056.00;;;15.90
20736;BMP180;10528;52.124;5.196;2024-02-04T07:37:36;102052.00;;;15.90
20736;BMP180;10528;52.124;5.196;2024-02-04T07:40:03;102058.00;;;15.90
20736;BMP180;10528;52.124;5.196;2024-02-04T07:42:32;102056.00;;;15.90
20736;BMP180;10528;52.124;5.196;2024-02-04T07:44:59;102050.00;;;15.80
20736;BMP180;10528;52.124;5.196;2024-02-04T07:47:26;102065.00;;;15.90
20736;BMP180;10528;52.124;5.196;2024-02-04T07:49:53;102058.00;;;15.80
20736;BMP180;10528;52.124;5.196;2024-02-04T07:52:20;102070.00;;;15.80
20736;BMP180;10528;52.124;5.196;2024-02-04T07:54:46;102060.00;;;15.80
20736;BMP180;10528;52.124;5.196;2024-02-04T07:57:14;102066.00;;;15.80
20736;BMP180;10528;52.124;5.196;2024-02-04T07:59:40;102053.00;;;15.90
20736;BMP180;10528;52.124;5.196;2024-02-04T08:02:08;102052.00;;;15.90
20736;BMP180;10528;52.124;5.196;2024-02-04T08:04:34;102047.00;;;15.90
20736;BMP180;10528;52.124;5.196;2024-02-04T08:07:02;102051.00;;;15.90
20736;BMP180;10528;52.124;5.196;2024-02-04T08:09:29;102049.00;;;15.90
20736;BMP180;10528;52.124;5.196;2024-02-04T08:11:56;102058.00;;;15.90
20736;BMP180;10528;52.124;5.196;2024-02-04T08:14:25;102045.00;;;15.90
20736;BMP180;10528;52.124;5.196;2024-02-04T08:16:52;102043.00;;;15.90
20736;BMP180;10528;52.124;5.196;2024-02-04T08:19:19;102043.00;;;15.90
20736;BMP180;10528;52.124;5.196;2024-02-04T08:21:46;102041.00;;;15.90
20736;BMP180;10528;52.124;5.196;2024-02-04T08:24:14;102035.00;;;15.90
20736;BMP180;10528;52.124;5.196;2024-02-04T08:26:41;102036.00;;;15.90
20736;BMP180;10528;52.124;5.196;2024-02-04T08:29:08;102027.00;;;15.90
20736;BMP180;10528;52.124;5.196;2024-02-04T08:31:35;102032.00;;;15.90
20736;BMP180;10528;52.124;5.196;2024-02-04T08:34:02;102047.00;;;16.00
20736;BMP180;10528;52.124;5.196;2024-02-04T08:36:29;102047.00;;;16.00
20736;BMP180;10528;52.124;5.196;2024-02-04T08:38:59;102053.00;;;16.00
20736;BMP180;10528;52.124;5.196;2024-02-04T08:41:26;102041.00;;;16.00
20736;BMP180;10528;52.124;5.196;2024-02-04T08:43:53;102051.00;;;16.00
20736;BMP180;10528;52.124;5.196;2024-02-04T08:46:20;102046.00;;;16.00
20736;BMP180;10528;52.124;5.196;2024-02-04T08:48:47;102037.00;;;16.10
20736;BMP180;10528;52.124;5.196;2024-02-04T08:51:14;102035.00;;;16.10
20736;BMP180;10528;52.124;5.196;2024-02-04T08:53:43;102042.00;;;16.10
20736;BMP180;10528;52.124;5.196;2024-02-04T08:56:10;102028.00;;;16.10
20736;BMP180;10528;52.124;5.196;2024-02-04T08:58:37;102024.00;;;16.10
20736;BMP180;10528;52.124;5.196;2024-02-04T09:01:05;102014.00;;;16.10
20736;BMP180;10528;52.124;5.196;2024-02-04T09:03:32;102024.00;;;16.10
20736;BMP180;10528;52.124;5.196;2024-02-04T09:06:00;102016.00;;;16.10
20736;BMP180;10528;52.124;5.196;2024-02-04T09:08:27;102020.00;;;16.10
20736;BMP180;10528;52.124;5.196;2024-02-04T09:10:54;102016.00;;;16.10
20736;BMP180;10528;52.124;5.196;2024-02-04T09:13:21;102023.00;;;16.10
20736;BMP180;10528;52.124;5.196;2024-02-04T09:15:51;102020.00;;;16.10
20736;BMP180;10528;52.124;5.196;2024-02-04T09:18:18;102026.00;;;16.20
20736;BMP180;10528;52.124;5.196;2024-02-04T09:20:45;102025.00;;;15.80
20736;BMP180;10528;52.124;5.196;2024-02-04T09:23:12;102040.00;;;15.90
20736;BMP180;10528;52.124;5.196;2024-02-04T09:25:39;102051.00;;;15.60
20736;BMP180;10528;52.124;5.196;2024-02-04T09:28:06;102045.00;;;15.50
20736;BMP180;10528;52.124;5.196;2024-02-04T09:30:33;102046.00;;;15.00
20736;BMP180;10528;52.124;5.196;2024-02-04T09:33:00;102049.00;;;15.60
20736;BMP180;10528;52.124;5.196;2024-02-04T09:35:27;102041.00;;;15.80
20736;BMP180;10528;52.124;5.196;2024-02-04T09:37:54;102047.00;;;16.10
20736;BMP180;10528;52.124;5.196;2024-02-04T09:40:22;102048.00;;;16.10
20736;BMP180;10528;52.124;5.196;2024-02-04T09:42:49;102042.00;;;16.20
20736;BMP180;10528;52.124;5.196;2024-02-04T09:45:19;102049.00;;;16.30
20736;BMP180;10528;52.124;5.196;2024-02-04T09:47:47;102034.00;;;16.40
20736;BMP180;10528;52.124;5.196;2024-02-04T09:50:16;102039.00;;;16.40
20736;BMP180;10528;52.124;5.196;2024-02-04T09:52:50;102033.00;;;16.40
20736;BMP180;10528;52.124;5.196;2024-02-04T09:55:22;102026.00;;;16.40
20736;BMP180;10528;52.124;5.196;2024-02-04T09:57:49;102022.00;;;16.50
20736;BMP180;10528;52.124;5.196;2024-02-04T10:00:19;102034.00;;;16.50
20736;BMP180;10528;52.124;5.196;2024-02-04T10:02:50;102032.00;;;16.60
20736;BMP180;10528;52.124;5.196;2024-02-04T10:05:17;102031.00;;;16.60
20736;BMP180;10528;52.124;5.196;2024-02-04T10:07:44;102043.00;;;16.60
20736;BMP180;10528;52.124;5.196;2024-02-04T10:10:12;102041.00;;;16.70
20736;BMP180;10528;52.124;5.196;2024-02-04T10:12:39;102039.00;;;16.70
20736;BMP180;10528;52.124;5.196;2024-02-04T10:15:08;102046.00;;;16.70
20736;BMP180;10528;52.124;5.196;2024-02-04T10:17:36;102036.00;;;16.60
20736;BMP180;10528;52.124;5.196;2024-02-04T10:20:03;102029.00;;;16.60
20736;BMP180;10528;52.124;5.196;2024-02-04T10:22:30;102035.00;;;16.60
20736;BMP180;10528;52.124;5.196;2024-02-04T10:25:10;102028.00;;;16.70
20736;BMP180;10528;52.124;5.196;2024-02-04T10:27:42;102029.00;;;16.70
20736;BMP180;10528;52.124;5.196;2024-02-04T10:30:10;102036.00;;;16.50
20736;BMP180;10528;52.124;5.196;2024-02-04T10:32:37;102033.00;;;16.60
20736;BMP180;10528;52.124;5.196;2024-02-04T10:35:05;102042.00;;;16.30
20736;BMP180;10528;52.124;5.196;2024-02-04T10:37:32;102039.00;;;16.20
20736;BMP180;10528;52.124;5.196;2024-02-04T10:39:59;102044.00;;;16.40
20736;BMP180;10528;52.124;5.196;2024-02-04T10:42:27;102055.00;;;16.50
20736;BMP180;10528;52.124;5.196;2024-02-04T10:44:57;102052.00;;;16.50
20736;BMP180;10528;52.124;5.196;2024-02-04T10:47:32;102062.00;;;16.10
20736;BMP180;10528;52.124;5.196;2024-02-04T10:50:03;102053.00;;;16.30
20736;BMP180;10528;52.124;5.196;2024-02-04T10:52:39;102049.00;;;16.50
20736;BMP180;10528;52.124;5.196;2024-02-04T10:55:11;102055.00;;;16.50
20736;BMP180;10528;52.124;5.196;2024-02-04T10:57:39;102047.00;;;16.70
20736;BMP180;10528;52.124;5.196;2024-02-04T11:00:08;102042.00;;;16.70
20736;BMP180;10528;52.124;5.196;2024-02-04T11:02:40;102066.00;;;16.80
20736;BMP180;10528;52.124;5.196;2024-02-04T11:05:09;102040.00;;;16.80
20736;BMP180;10528;52.124;5.196;2024-02-04T11:07:37;102051.00;;;16.80
20736;BMP180;10528;52.124;5.196;2024-02-04T11:10:04;102051.00;;;16.80
20736;BMP180;10528;52.124;5.196;2024-02-04T11:12:35;102056.00;;;16.60
20736;BMP180;10528;52.124;5.196;2024-02-04T11:15:07;102051.00;;;16.70
20736;BMP180;10528;52.124;5.196;2024-02-04T11:20:58;102056.00;;;16.70
20736;BMP180;10528;52.124;5.196;2024-02-04T11:26:52;102031.00;;;16.50
20736;BMP180;10528;52.124;5.196;2024-02-04T11:29:21;102031.00;;;16.60
20736;BMP180;10528;52.124;5.196;2024-02-04T11:31:48;102027.00;;;16.60
20736;BMP180;10528;52.124;5.196;2024-02-04T11:34:16;102029.00;;;16.70
20736;BMP180;10528;52.124;5.196;2024-02-04T11:36:43;102022.00;;;16.70
20736;BMP180;10528;52.124;5.196;2024-02-04T11:39:18;102021.00;;;16.70
20736;BMP180;10528;52.124;5.196;2024-02-04T11:41:49;102007.00;;;16.70
20736;BMP180;10528;52.124;5.196;2024-02-04T11:44:24;102010.00;;;16.70
20736;BMP180;10528;52.124;5.196;2024-02-04T11:46:55;102008.00;;;16.80
20736;BMP180;10528;52.124;5.196;2024-02-04T11:49:25;102004.00;;;16.80
20736;BMP180;10528;52.124;5.196;2024-02-04T11:51:53;102001.00;;;16.80
20736;BMP180;10528;52.124;5.196;2024-02-04T11:54:21;101993.00;;;16.80
20736;BMP180;10528;52.124;5.196;2024-02-04T11:56:50;102006.00;;;16.80
20736;BMP180;10528;52.124;5.196;2024-02-04T11:59:24;101996.00;;;16.80
20736;BMP180;10528;52.124;5.196;2024-02-04T12:01:57;101988.00;;;16.80
20736;BMP180;10528;52.124;5.196;2024-02-04T12:04:27;101988.00;;;16.80
20736;BMP180;10528;52.124;5.196;2024-02-04T12:06:56;101978.00;;;16.90
20736;BMP180;10528;52.124;5.196;2024-02-04T12:09:26;101989.00;;;16.90
20736;BMP180;10528;52.124;5.196;2024-02-04T12:11:54;101976.00;;;16.90
20736;BMP180;10528;52.124;5.196;2024-02-04T12:14:21;101972.00;;;16.90
20736;BMP180;10528;52.124;5.196;2024-02-04T12:16:49;101990.00;;;16.90
20736;BMP180;10528;52.124;5.196;2024-02-04T12:19:16;101979.00;;;16.90
20736;BMP180;10528;52.124;5.196;2024-02-04T12:21:44;101963.00;;;16.90
20736;BMP180;10528;52.124;5.196;2024-02-04T12:24:11;101973.00;;;17.00
20736;BMP180;10528;52.124;5.196;2024-02-04T12:26:39;101964.00;;;17.00
20736;BMP180;10528;52.124;5.196;2024-02-04T12:29:06;101975.00;;;17.00
20736;BMP180;10528;52.124;5.196;2024-02-04T12:31:33;101975.00;;;17.00
20736;BMP180;10528;52.124;5.196;2024-02-04T12:34:01;101966.00;;;17.00
20736;BMP180;10528;52.124;5.196;2024-02-04T12:36:31;101961.00;;;17.00
20736;BMP180;10528;52.124;5.196;2024-02-04T12:39:01;101974.00;;;17.00
20736;BMP180;10528;52.124;5.196;2024-02-04T12:41:28;101969.00;;;17.00
20736;BMP180;10528;52.124;5.196;2024-02-04T12:43:58;101980.00;;;17.00
20736;BMP180;10528;52.124;5.196;2024-02-04T12:46:27;101974.00;;;17.00
20736;BMP180;10528;52.124;5.196;2024-02-04T12:48:56;101978.00;;;16.90
20736;BMP180;10528;52.124;5.196;2024-02-04T12:51:31;101976.00;;;16.90
20736;BMP180;10528;52.124;5.196;2024-02-04T12:54:12;101960.00;;;16.90
20736;BMP180;10528;52.124;5.196;2024-02-04T12:56:51;101967.00;;;16.90
20736;BMP180;10528;52.124;5.196;2024-02-04T12:59:32;101958.00;;;16.90
20736;BMP180;10528;52.124;5.196;2024-02-04T13:02:05;101955.00;;;17.00
20736;BMP180;10528;52.124;5.196;2024-02-04T13:04:40;101962.00;;;17.00
20736;BMP180;10528;52.124;5.196;2024-02-04T13:07:11;101963.00;;;17.00
20736;BMP180;10528;52.124;5.196;2024-02-04T13:09:45;101965.00;;;17.00
20736;BMP180;10528;52.124;5.196;2024-02-04T13:12:14;101966.00;;;17.00
20736;BMP180;10528;52.124;5.196;2024-02-04T13:14:42;101962.00;;;17.00
20736;BMP180;10528;52.124;5.196;2024-02-04T13:17:11;101954.00;;;17.00
20736;BMP180;10528;52.124;5.196;2024-02-04T13:19:38;101960.00;;;17.00
20736;BMP180;10528;52.124;5.196;2024-02-04T13:22:07;101952.00;;;17.00
20736;BMP180;10528;52.124;5.196;2024-02-04T13:24:37;101942.00;;;17.00
20736;BMP180;10528;52.124;5.196;2024-02-04T13:27:04;101935.00;;;17.10
20736;BMP180;10528;52.124;5.196;2024-02-04T13:29:34;101940.00;;;17.10
20736;BMP180;10528;52.124;5.196;2024-02-04T13:32:01;101947.00;;;17.10
20736;BMP180;10528;52.124;5.196;2024-02-04T13:34:28;101954.00;;;17.10
20736;BMP180;10528;52.124;5.196;2024-02-04T13:36:56;101951.00;;;17.10
20736;BMP180;10528;52.124;5.196;2024-02-04T13:39:23;101948.00;;;17.10
20736;BMP180;10528;52.124;5.196;2024-02-04T13:41:49;101940.00;;;17.10
20736;BMP180;10528;52.124;5.196;2024-02-04T13:44:16;101941.00;;;17.10
20736;BMP180;10528;52.124;5.196;2024-02-04T13:46:43;101928.00;;;17.20
20736;BMP180;10528;52.124;5.196;2024-02-04T13:49:10;101921.00;;;17.20
20736;BMP180;10528;52.124;5.196;2024-02-04T13:51:40;101913.00;;;17.20
20736;BMP180;10528;52.124;5.196;2024-02-04T13:54:12;101908.00;;;17.20
20736;BMP180;10528;52.124;5.196;2024-02-04T13:56:45;101910.00;;;17.30
20736;BMP180;10528;52.124;5.196;2024-02-04T13:59:13;101915.00;;;17.30
20736;BMP180;10528;52.124;5.196;2024-02-04T14:01:40;101921.00;;;17.20
20736;BMP180;10528;52.124;5.196;2024-02-04T14:04:07;101905.00;;;17.20
20736;BMP180;10528;52.124;5.196;2024-02-04T14:06:35;101914.00;;;17.20
20736;BMP180;10528;52.124;5.196;2024-02-04T14:09:02;101908.00;;;17.20
20736;BMP180;10528;52.124;5.196;2024-02-04T14:11:29;101923.00;;;17.10
20736;BMP180;10528;52.124;5.196;2024-02-04T14:13:56;101910.00;;;17.10
20736;BMP180;10528;52.124;5.196;2024-02-04T14:16:23;101913.00;;;17.10
20736;BMP180;10528;52.124;5.196;2024-02-04T14:18:52;101904.00;;;17.10